Time;durP1;ratioP1;P1;durP2;ratioP2;P2;SDS_P1;SDS_P2;PMS_P1;PMS_P2;Temp;Humidity;BMP_temperature;BMP_pressure;BME280_temperature;BME280_humidity;BME280_pressure;Samples;Min_cycle;Max_cycle;Signal;HPM_P1;HPM_P2
2023/11/03 00:00:15;;;;;;;3.47;0.80;;;;;;;;;;5043319;28;20029;-65
2023/11/03 00:02:40;;;;;;;1.83;0.63;;;;;;;;;;5041154;28;20115;-66
2023/11/03 00:05:12;;;;;;;7.60;0.97;;;;;;;;;;5041877;28;20048;-65
2023/11/03 00:07:37;;;;;;;3.28;0.90;;;;;;;;;;5042292;28;20342;-65
2023/11/03 00:10:06;;;;;;;3.27;0.70;;;;;;;;;;5042822;28;20117;-65
2023/11/03 00:12:32;;;;;;;2.87;0.83;;;;;;;;;;5040519;28;20028;-65
2023/11/03 00:14:57;;;;;;;6.60;0.97;;;;;;;;;;5041760;28;20021;-65
2023/11/03 00:17:23;;;;;;;5.00;0.70;;;;;;;;;;5039143;28;20052;-66
2023/11/03 00:19:48;;;;;;;4.10;0.73;;;;;;;;;;5026522;28;20612;-65
2023/11/03 00:22:13;;;;;;;8.73;0.90;;;;;;;;;;5043363;28;20037;-65
2023/11/03 00:24:39;;;;;;;3.77;0.90;;;;;;;;;;5042383;28;20322;-64
2023/11/03 00:27:05;;;;;;;7.57;1.10;;;;;;;;;;5036767;28;20039;-64
2023/11/03 00:29:30;;;;;;;8.07;1.13;;;;;;;;;;5042789;28;20312;-65
2023/11/03 00:31:56;;;;;;;7.00;1.20;;;;;;;;;;5049906;28;20390;-65
2023/11/03 00:34:22;;;;;;;7.60;1.03;;;;;;;;;;5047239;28;20445;-64
2023/11/03 00:36:47;;;;;;;4.23;1.00;;;;;;;;;;5043396;28;20084;-64
2023/11/03 00:39:13;;;;;;;5.83;1.00;;;;;;;;;;5037462;28;20107;-64
2023/11/03 00:41:39;;;;;;;7.53;1.10;;;;;;;;;;5035980;28;20457;-64
2023/11/03 00:44:06;;;;;;;4.97;0.90;;;;;;;;;;5043631;28;20044;-63
2023/11/03 00:46:31;;;;;;;8.20;1.40;;;;;;;;;;5035263;28;20063;-64
2023/11/03 00:48:58;;;;;;;5.40;1.13;;;;;;;;;;5042150;28;20053;-65
2023/11/03 00:51:23;;;;;;;7.87;1.40;;;;;;;;;;5028660;28;20486;-64
2023/11/03 00:53:49;;;;;;;7.40;1.13;;;;;;;;;;5036943;28;20074;-64
2023/11/03 00:56:14;;;;;;;3.47;1.10;;;;;;;;;;5043251;28;20022;-64
2023/11/03 00:58:39;;;;;;;2.97;0.80;;;;;;;;;;5042563;28;20432;-65
2023/11/03 01:01:07;;;;;;;17.87;2.00;;;;;;;;;;5041342;28;20474;-65
2023/11/03 01:03:32;;;;;;;6.03;1.07;;;;;;;;;;5023514;28;20046;-64
2023/11/03 01:05:58;;;;;;;2.73;0.90;;;;;;;;;;5041690;28;20033;-64
2023/11/03 01:08:23;;;;;;;3.30;0.83;;;;;;;;;;5039134;28;20355;-64
2023/11/03 01:10:49;;;;;;;7.53;1.40;;;;;;;;;;5038578;28;20028;-66
2023/11/03 01:13:15;;;;;;;5.53;1.07;;;;;;;;;;5044053;28;20056;-65
2023/11/03 01:15:40;;;;;;;6.43;1.10;;;;;;;;;;5038290;28;20410;-64
2023/11/03 01:18:06;;;;;;;2.93;0.90;;;;;;;;;;5041764;28;20053;-64
2023/11/03 01:20:32;;;;;;;2.97;0.90;;;;;;;;;;5041518;28;20071;-64
2023/11/03 01:22:58;;;;;;;6.97;1.13;;;;;;;;;;5035339;28;20053;-64
2023/11/03 01:25:23;;;;;;;1.77;0.70;;;;;;;;;;5047891;28;20033;-66
2023/11/03 01:27:50;;;;;;;3.63;0.70;;;;;;;;;;5044325;28;20145;-64
2023/11/03 01:30:17;;;;;;;7.43;1.20;;;;;;;;;;5045453;28;20036;-66
2023/11/03 01:32:42;;;;;;;10.13;1.07;;;;;;;;;;5041713;28;20053;-65
2023/11/03 01:35:08;;;;;;;6.27;1.00;;;;;;;;;;5035285;28;20059;-65
2023/11/03 01:37:33;;;;;;;5.07;0.90;;;;;;;;;;5039509;28;20020;-66
2023/11/03 01:39:59;;;;;;;10.37;1.40;;;;;;;;;;5047455;28;20127;-65
2023/11/03 01:42:25;;;;;;;3.17;1.00;;;;;;;;;;5047472;28;20055;-63
2023/11/03 01:44:50;;;;;;;5.20;1.00;;;;;;;;;;5043919;28;20488;-65
2023/11/03 01:47:16;;;;;;;7.63;1.23;;;;;;;;;;5037570;28;20030;-65
2023/11/03 01:49:42;;;;;;;2.30;0.70;;;;;;;;;;5036462;28;20014;-66
2023/11/03 01:52:09;;;;;;;6.47;1.20;;;;;;;;;;5044245;28;20089;-64
2023/11/03 01:54:34;;;;;;;2.67;0.80;;;;;;;;;;5044136;28;20021;-65
2023/11/03 01:57:00;;;;;;;3.53;0.70;;;;;;;;;;5042146;28;20024;-66
2023/11/03 01:59:25;;;;;;;3.00;0.93;;;;;;;;;;5037199;28;20024;-65
2023/11/03 02:01:51;;;;;;;4.30;1.10;;;;;;;;;;5043018;28;20465;-65
2023/11/03 02:04:16;;;;;;;5.40;1.03;;;;;;;;;;5042570;28;20499;-66
2023/11/03 02:06:42;;;;;;;4.00;0.80;;;;;;;;;;5039857;28;20017;-66
2023/11/03 02:09:07;;;;;;;5.30;1.00;;;;;;;;;;5041756;28;20060;-66
2023/11/03 02:11:32;;;;;;;3.20;0.80;;;;;;;;;;5041359;28;20068;-65
2023/11/03 02:13:57;;;;;;;4.10;1.10;;;;;;;;;;5041161;28;20029;-66
2023/11/03 02:16:23;;;;;;;7.63;1.10;;;;;;;;;;5039577;28;20017;-67
2023/11/03 02:18:50;;;;;;;5.57;1.30;;;;;;;;;;5038482;28;20025;-66
2023/11/03 02:21:15;;;;;;;5.73;1.03;;;;;;;;;;5039645;28;20653;-64
2023/11/03 02:23:40;;;;;;;7.43;1.10;;;;;;;;;;5027446;28;20032;-66
2023/11/03 02:26:06;;;;;;;4.87;1.00;;;;;;;;;;5045584;28;20558;-65
2023/11/03 02:28:31;;;;;;;6.47;1.00;;;;;;;;;;5041509;28;20428;-66
2023/11/03 02:30:56;;;;;;;3.37;1.00;;;;;;;;;;5036707;28;20401;-65
2023/11/03 02:33:21;;;;;;;2.67;1.00;;;;;;;;;;5037224;28;20021;-67
2023/11/03 02:35:48;;;;;;;5.57;1.27;;;;;;;;;;5037083;28;20564;-66
2023/11/03 02:38:16;;;;;;;3.50;0.83;;;;;;;;;;5038440;28;20029;-66
2023/11/03 02:40:43;;;;;;;12.67;1.30;;;;;;;;;;5036976;28;20017;-66
2023/11/03 02:43:08;;;;;;;3.17;1.00;;;;;;;;;;5039957;28;20436;-68
2023/11/03 02:45:33;;;;;;;3.60;1.03;;;;;;;;;;5034410;28;20017;-66
2023/11/03 02:47:58;;;;;;;4.40;0.93;;;;;;;;;;5035477;28;20020;-68
2023/11/03 02:50:24;;;;;;;8.80;1.20;;;;;;;;;;5040965;28;20055;-66
2023/11/03 02:52:49;;;;;;;5.00;1.00;;;;;;;;;;5024201;28;20188;-68
2023/11/03 02:55:14;;;;;;;4.00;0.90;;;;;;;;;;5033940;28;20264;-69
2023/11/03 02:57:39;;;;;;;6.57;1.10;;;;;;;;;;5038761;28;20083;-67
2023/11/03 03:00:05;;;;;;;4.37;0.90;;;;;;;;;;5043672;28;20346;-67
2023/11/03 03:02:30;;;;;;;9.13;1.20;;;;;;;;;;5037755;28;20506;-66
2023/11/03 03:04:56;;;;;;;5.37;1.10;;;;;;;;;;5024598;28;20148;-66
2023/11/03 03:07:21;;;;;;;3.97;1.00;;;;;;;;;;5039021;28;20098;-67
2023/11/03 03:09:46;;;;;;;3.73;0.80;;;;;;;;;;5030542;28;20454;-69
2023/11/03 03:12:11;;;;;;;11.63;1.70;;;;;;;;;;5041676;28;20543;-68
2023/11/03 03:14:37;;;;;;;6.97;0.90;;;;;;;;;;5038723;28;20026;-68
2023/11/03 03:17:02;;;;;;;5.50;1.10;;;;;;;;;;5037874;28;20052;-70
2023/11/03 03:19:28;;;;;;;5.13;1.10;;;;;;;;;;5042290;28;20029;-67
2023/11/03 03:21:53;;;;;;;6.20;1.47;;;;;;;;;;5039940;28;20032;-69
2023/11/03 03:24:18;;;;;;;3.87;0.83;;;;;;;;;;5036648;28;20033;-68
2023/11/03 03:26:43;;;;;;;9.20;1.37;;;;;;;;;;5037245;28;20017;-69
2023/11/03 03:29:09;;;;;;;5.43;1.17;;;;;;;;;;5036110;28;20029;-69
2023/11/03 03:31:34;;;;;;;6.27;1.20;;;;;;;;;;5039132;28;20036;-69
2023/11/03 03:33:59;;;;;;;4.70;0.90;;;;;;;;;;5034905;28;20029;-70
2023/11/03 03:36:24;;;;;;;5.57;1.33;;;;;;;;;;5042399;28;20404;-68
2023/11/03 03:38:49;;;;;;;4.67;1.03;;;;;;;;;;5038742;28;20017;-68
2023/11/03 03:41:16;;;;;;;4.33;1.30;;;;;;;;;;5022379;28;20440;-67
2023/11/03 03:43:41;;;;;;;4.87;0.87;;;;;;;;;;5035262;28;20025;-67
2023/11/03 03:46:06;;;;;;;2.90;0.83;;;;;;;;;;5037961;28;20036;-67
2023/11/03 03:48:32;;;;;;;3.93;0.90;;;;;;;;;;5041275;28;20021;-67
2023/11/03 03:50:57;;;;;;;7.80;1.23;;;;;;;;;;5040275;28;20030;-68
2023/11/03 03:53:22;;;;;;;4.43;1.00;;;;;;;;;;5039008;28;20423;-67
2023/11/03 03:55:47;;;;;;;3.67;0.90;;;;;;;;;;5031894;28;20284;-68
2023/11/03 03:58:12;;;;;;;5.20;1.30;;;;;;;;;;5039619;28;20033;-66
2023/11/03 04:00:38;;;;;;;3.43;1.10;;;;;;;;;;5044220;28;20384;-66
2023/11/03 04:03:03;;;;;;;5.30;1.07;;;;;;;;;;5044152;28;20072;-64
2023/11/03 04:05:28;;;;;;;3.90;1.17;;;;;;;;;;5037235;28;20055;-66
2023/11/03 04:07:53;;;;;;;3.37;0.90;;;;;;;;;;5040334;28;20083;-66
2023/11/03 04:10:19;;;;;;;7.63;1.50;;;;;;;;;;5039961;28;20057;-66
2023/11/03 04:12:44;;;;;;;3.90;1.00;;;;;;;;;;5046906;28;20017;-67
2023/11/03 04:15:09;;;;;;;4.63;1.10;;;;;;;;;;5043929;28;20243;-67
2023/11/03 04:17:34;;;;;;;5.57;1.40;;;;;;;;;;5039003;28;20276;-68
2023/11/03 04:20:00;;;;;;;3.97;1.00;;;;;;;;;;5045032;28;20033;-70
2023/11/03 04:22:25;;;;;;;4.97;1.43;;;;;;;;;;5044815;28;20024;-67
2023/11/03 04:24:50;;;;;;;4.40;1.13;;;;;;;;;;5044684;28;20591;-65
2023/11/03 04:27:16;;;;;;;5.93;1.07;;;;;;;;;;5043865;28;20037;-69
2023/11/03 04:29:41;;;;;;;3.10;0.83;;;;;;;;;;5043051;28;20091;-68
2023/11/03 04:32:07;;;;;;;3.67;1.10;;;;;;;;;;5040555;28;20064;-68
2023/11/03 04:34:32;;;;;;;2.37;0.90;;;;;;;;;;5041967;28;20048;-67
2023/11/03 04:36:57;;;;;;;4.43;1.20;;;;;;;;;;5040874;28;20374;-72
2023/11/03 04:39:24;;;;;;;2.27;0.70;;;;;;;;;;5040722;28;20033;-67
2023/11/03 04:41:49;;;;;;;5.93;1.13;;;;;;;;;;5042567;28;20108;-71
2023/11/03 04:44:15;;;;;;;7.37;1.33;;;;;;;;;;5042449;28;20109;-68
2023/11/03 04:46:40;;;;;;;3.73;0.90;;;;;;;;;;5044750;28;20029;-71
2023/11/03 04:49:05;;;;;;;4.50;1.37;;;;;;;;;;5047267;28;20586;-67
2023/11/03 04:51:31;;;;;;;2.87;1.20;;;;;;;;;;5040550;28;20079;-68
2023/11/03 04:53:57;;;;;;;3.43;0.97;;;;;;;;;;5046279;28;20034;-66
2023/11/03 04:56:22;;;;;;;6.80;1.30;;;;;;;;;;5043521;28;20500;-67
2023/11/03 04:58:48;;;;;;;3.57;1.10;;;;;;;;;;5039925;28;20482;-69
2023/11/03 05:01:13;;;;;;;3.10;1.10;;;;;;;;;;5023761;28;20128;-67
2023/11/03 05:03:38;;;;;;;4.07;1.10;;;;;;;;;;5034601;28;20073;-69
2023/11/03 05:06:04;;;;;;;7.30;1.53;;;;;;;;;;5038571;28;20029;-68
2023/11/03 05:08:29;;;;;;;5.17;1.10;;;;;;;;;;5037366;28;20021;-69
2023/11/03 05:10:54;;;;;;;4.43;1.40;;;;;;;;;;5037106;28;20036;-68
2023/11/03 05:13:19;;;;;;;5.53;1.10;;;;;;;;;;5036593;28;20418;-68
2023/11/03 05:15:45;;;;;;;4.07;1.10;;;;;;;;;;5041319;28;20028;-67
2023/11/03 05:18:12;;;;;;;7.33;1.13;;;;;;;;;;5043494;28;20033;-69
2023/11/03 05:20:37;;;;;;;3.83;1.30;;;;;;;;;;5039753;28;20453;-67
2023/11/03 05:23:02;;;;;;;4.40;1.27;;;;;;;;;;5038815;28;20083;-69
2023/11/03 05:25:28;;;;;;;7.00;1.20;;;;;;;;;;5040951;28;20041;-66
2023/11/03 05:27:53;;;;;;;2.40;1.00;;;;;;;;;;5039747;28;20452;-66
2023/11/03 05:30:19;;;;;;;3.80;1.10;;;;;;;;;;5037922;28;20455;-67
2023/11/03 05:32:44;;;;;;;1.83;0.83;;;;;;;;;;5039369;28;20939;-68
2023/11/03 05:35:09;;;;;;;4.87;1.30;;;;;;;;;;5036749;28;20403;-68
2023/11/03 05:37:34;;;;;;;3.60;1.30;;;;;;;;;;5036233;28;20394;-71
2023/11/03 05:39:59;;;;;;;4.57;1.10;;;;;;;;;;5039132;28;20057;-67
2023/11/03 05:42:25;;;;;;;4.20;1.00;;;;;;;;;;5039346;28;20186;-67
2023/11/03 05:44:50;;;;;;;5.70;1.07;;;;;;;;;;5037049;28;20371;-65
2023/11/03 05:47:15;;;;;;;8.03;1.20;;;;;;;;;;5036141;28;20091;-68
2023/11/03 05:49:40;;;;;;;4.07;1.10;;;;;;;;;;5039648;28;20420;-65
2023/11/03 05:52:06;;;;;;;3.60;1.57;;;;;;;;;;5037444;28;20401;-67
2023/11/03 05:54:31;;;;;;;5.40;1.30;;;;;;;;;;5036923;28;20397;-67
2023/11/03 05:56:56;;;;;;;2.47;1.10;;;;;;;;;;5036993;28;20032;-66
2023/11/03 05:59:22;;;;;;;4.10;1.73;;;;;;;;;;5035188;28;20021;-69
2023/11/03 06:01:47;;;;;;;4.03;1.20;;;;;;;;;;5035159;28;20454;-69
2023/11/03 06:04:12;;;;;;;5.43;1.23;;;;;;;;;;5036922;28;20088;-68
2023/11/03 06:06:38;;;;;;;3.07;1.10;;;;;;;;;;5032933;28;20029;-70
2023/11/03 06:09:03;;;;;;;5.57;1.13;;;;;;;;;;5034809;28;20055;-70
2023/11/03 06:11:28;;;;;;;3.53;1.23;;;;;;;;;;5031899;28;20470;-70
2023/11/03 06:13:53;;;;;;;1.97;1.10;;;;;;;;;;5036282;28;20029;-70
2023/11/03 06:16:20;;;;;;;2.90;1.00;;;;;;;;;;5035649;28;20039;-66
2023/11/03 06:18:45;;;;;;;3.23;1.03;;;;;;;;;;5035171;28;20044;-63
2023/11/03 06:21:11;;;;;;;4.00;1.20;;;;;;;;;;5017956;28;20025;-69
2023/11/03 06:23:37;;;;;;;4.03;1.33;;;;;;;;;;5036388;28;20029;-70
2023/11/03 06:26:03;;;;;;;4.40;1.00;;;;;;;;;;5036127;28;20086;-70
2023/11/03 06:28:29;;;;;;;4.43;1.20;;;;;;;;;;5038207;28;20029;-66
2023/11/03 06:30:54;;;;;;;4.17;1.00;;;;;;;;;;5030589;28;20092;-69
2023/11/03 06:33:20;;;;;;;4.67;1.30;;;;;;;;;;5032565;28;20032;-65
2023/11/03 06:35:45;;;;;;;3.07;1.07;;;;;;;;;;5032053;28;20052;-67
2023/11/03 06:38:10;;;;;;;3.07;1.20;;;;;;;;;;5036976;28;20421;-67
2023/11/03 06:40:36;;;;;;;3.70;1.20;;;;;;;;;;5034571;28;20029;-66
2023/11/03 06:43:01;;;;;;;6.70;2.10;;;;;;;;;;5034393;28;20064;-68
2023/11/03 06:45:26;;;;;;;6.03;1.50;;;;;;;;;;5037059;28;20551;-67
2023/11/03 06:47:51;;;;;;;3.00;1.30;;;;;;;;;;5034860;28;20580;-67
2023/11/03 06:50:17;;;;;;;3.80;1.10;;;;;;;;;;5038377;28;20389;-67
2023/11/03 06:52:42;;;;;;;3.23;1.10;;;;;;;;;;5033950;28;20109;-66
2023/11/03 06:55:08;;;;;;;6.30;1.60;;;;;;;;;;5033580;28;20025;-69
2023/11/03 06:57:33;;;;;;;3.70;1.10;;;;;;;;;;5035823;28;20030;-68
2023/11/03 06:59:59;;;;;;;2.33;1.20;;;;;;;;;;5033600;28;20021;-68
2023/11/03 07:02:24;;;;;;;2.83;1.17;;;;;;;;;;5034927;28;20213;-66
2023/11/03 07:04:50;;;;;;;5.83;1.47;;;;;;;;;;5012989;28;20050;-68
2023/11/03 07:07:15;;;;;;;6.07;1.73;;;;;;;;;;5015357;28;20029;-68
2023/11/03 07:09:40;;;;;;;6.23;1.47;;;;;;;;;;5012387;28;20390;-66
2023/11/03 07:12:06;;;;;;;4.70;1.37;;;;;;;;;;5015700;28;20184;-65
2023/11/03 07:14:31;;;;;;;6.77;1.50;;;;;;;;;;5015411;28;20623;-67
2023/11/03 07:16:57;;;;;;;4.83;1.30;;;;;;;;;;5016277;28;20109;-69
2023/11/03 07:19:22;;;;;;;6.80;1.50;;;;;;;;;;5014479;28;20037;-69
2023/11/03 07:21:51;;;;;;;4.80;1.40;;;;;;;;;;5010624;28;20106;-69
2023/11/03 07:24:17;;;;;;;4.27;1.20;;;;;;;;;;5015656;28;20485;-66
2023/11/03 07:26:43;;;;;;;2.77;1.20;;;;;;;;;;5015958;28;20034;-68
2023/11/03 07:29:09;;;;;;;6.47;1.30;;;;;;;;;;5016054;28;20383;-69
2023/11/03 07:31:34;;;;;;;3.27;1.30;;;;;;;;;;5009054;28;20034;-72
2023/11/03 07:34:00;;;;;;;4.27;1.40;;;;;;;;;;5013140;28;20025;-70
2023/11/03 07:36:25;;;;;;;2.80;1.10;;;;;;;;;;5018791;28;20026;-68
2023/11/03 07:38:50;;;;;;;3.37;1.50;;;;;;;;;;5016873;28;20018;-68
2023/11/03 07:41:16;;;;;;;5.90;1.50;;;;;;;;;;5013769;28;20039;-70
2023/11/03 07:43:41;;;;;;;4.57;1.40;;;;;;;;;;5017896;28;20386;-70
2023/11/03 07:46:06;;;;;;;6.37;1.70;;;;;;;;;;5020459;28;20454;-68
2023/11/03 07:48:31;;;;;;;6.27;1.50;;;;;;;;;;5017498;28;20026;-68
2023/11/03 07:50:57;;;;;;;4.17;1.40;;;;;;;;;;5016947;28;20033;-71
2023/11/03 07:53:22;;;;;;;5.83;1.57;;;;;;;;;;5015633;28;20108;-70
2023/11/03 07:55:48;;;;;;;4.63;1.40;;;;;;;;;;5017813;28;20084;-68
2023/11/03 07:58:13;;;;;;;3.30;1.20;;;;;;;;;;5022377;28;20092;-68
2023/11/03 08:00:39;;;;;;;5.07;1.20;;;;;;;;;;5017551;28;20057;-68
2023/11/03 08:03:07;;;;;;;4.37;1.40;;;;;;;;;;5018865;28;20060;-69
2023/11/03 08:05:33;;;;;;;3.70;1.20;;;;;;;;;;5039118;28;20025;-67
2023/11/03 08:07:58;;;;;;;7.83;1.70;;;;;;;;;;5037110;28;20128;-67
2023/11/03 08:10:23;;;;;;;4.80;1.40;;;;;;;;;;5040463;28;20087;-68
2023/11/03 08:12:48;;;;;;;6.07;1.20;;;;;;;;;;5034367;28;20037;-69
2023/11/03 08:15:14;;;;;;;4.93;1.20;;;;;;;;;;5040583;28;20029;-68
2023/11/03 08:17:39;;;;;;;5.97;1.30;;;;;;;;;;5036779;28;20029;-69
2023/11/03 08:20:05;;;;;;;6.67;1.30;;;;;;;;;;5037030;28;20350;-68
2023/11/03 08:22:32;;;;;;;5.50;1.57;;;;;;;;;;5037090;28;20542;-70
2023/11/03 08:24:57;;;;;;;6.97;1.23;;;;;;;;;;5039827;28;20031;-71
2023/11/03 08:27:22;;;;;;;4.30;1.10;;;;;;;;;;5038365;28;20477;-69
2023/11/03 08:29:49;;;;;;;4.40;1.23;;;;;;;;;;5034839;28;20025;-70
2023/11/03 08:32:15;;;;;;;3.97;1.10;;;;;;;;;;5044263;28;20307;-70
2023/11/03 08:34:40;;;;;;;4.33;1.00;;;;;;;;;;5037534;28;20152;-68
2023/11/03 08:37:05;;;;;;;4.63;1.07;;;;;;;;;;5035317;28;20110;-65
2023/11/03 08:39:31;;;;;;;4.77;1.40;;;;;;;;;;5034551;28;20037;-69
2023/11/03 08:42:00;;;;;;;5.70;1.00;;;;;;;;;;5035728;28;20179;-68
2023/11/03 08:44:26;;;;;;;3.87;1.00;;;;;;;;;;5037583;28;20622;-68
2023/11/03 08:46:51;;;;;;;6.37;1.07;;;;;;;;;;5038073;28;20061;-67
2023/11/03 08:49:16;;;;;;;3.83;1.00;;;;;;;;;;5036818;28;20040;-66
2023/11/03 08:51:41;;;;;;;7.67;1.40;;;;;;;;;;5033047;28;20336;-67
2023/11/03 08:54:10;;;;;;;5.07;1.17;;;;;;;;;;5037806;28;20426;-65
2023/11/03 08:56:35;;;;;;;6.40;1.20;;;;;;;;;;5036675;28;20451;-65
2023/11/03 08:59:03;;;;;;;6.07;1.17;;;;;;;;;;5034480;28;20036;-69
2023/11/03 09:01:28;;;;;;;4.73;1.10;;;;;;;;;;5037656;28;20024;-68
2023/11/03 09:03:53;;;;;;;4.93;1.20;;;;;;;;;;5037238;28;20092;-67
2023/11/03 09:06:19;;;;;;;5.73;1.30;;;;;;;;;;5039530;28;20035;-69
2023/11/03 09:08:45;;;;;;;3.40;0.97;;;;;;;;;;5038110;28;20234;-68
2023/11/03 09:11:10;;;;;;;7.33;1.10;;;;;;;;;;5032964;28;20025;-68
2023/11/03 09:13:47;;;;;;;5.43;1.27;;;;;;;;;;5037488;28;20805;-66
2023/11/03 09:16:12;;;;;;;4.20;1.03;;;;;;;;;;5032699;28;20022;-68
2023/11/03 09:18:38;;;;;;;5.93;1.77;;;;;;;;;;5035368;28;20041;-66
2023/11/03 09:21:03;;;;;;;7.47;1.50;;;;;;;;;;5034133;28;20378;-68
2023/11/03 09:23:28;;;;;;;4.27;1.30;;;;;;;;;;5038246;28;20165;-67
2023/11/03 09:25:54;;;;;;;2.23;0.97;;;;;;;;;;5035695;28;20029;-68
2023/11/03 09:28:19;;;;;;;5.47;1.10;;;;;;;;;;5037408;28;20481;-69
2023/11/03 09:30:44;;;;;;;3.30;0.97;;;;;;;;;;5038788;28;20496;-66
2023/11/03 09:33:09;;;;;;;6.80;1.33;;;;;;;;;;5039446;28;20041;-67
2023/11/03 09:35:35;;;;;;;8.40;1.10;;;;;;;;;;5037640;28;20021;-66
2023/11/03 09:38:01;;;;;;;5.63;1.23;;;;;;;;;;5033830;28;20018;-69
2023/11/03 09:40:26;;;;;;;3.27;1.10;;;;;;;;;;5036228;28;20080;-69
2023/11/03 09:42:52;;;;;;;5.27;1.10;;;;;;;;;;5035496;28;20020;-64
2023/11/03 09:45:23;;;;;;;4.70;1.00;;;;;;;;;;5036384;28;20028;-67
2023/11/03 09:47:49;;;;;;;6.88;1.25;;;;;;;;;;5034188;28;20025;-67
2023/11/03 09:50:14;;;;;;;5.03;1.10;;;;;;;;;;5035143;28;20493;-68
2023/11/03 09:52:47;;;;;;;6.40;1.13;;;;;;;;;;5036823;28;20030;-69
2023/11/03 09:55:17;;;;;;;4.50;1.00;;;;;;;;;;5033808;28;20028;-65
2023/11/03 09:57:43;;;;;;;5.33;1.20;;;;;;;;;;5031446;28;20643;-67
2023/11/03 10:00:16;;;;;;;5.80;1.40;;;;;;;;;;5032110;28;20029;-68
2023/11/03 10:02:42;;;;;;;3.50;0.93;;;;;;;;;;5042184;28;20475;-66
2023/11/03 10:05:13;;;;;;;6.60;2.03;;;;;;;;;;5034089;28;20037;-68
2023/11/03 10:07:38;;;;;;;5.30;1.05;;;;;;;;;;5037139;28;20522;-68
2023/11/03 10:10:07;;;;;;;5.23;1.40;;;;;;;;;;5033228;28;20044;-68
2023/11/03 10:12:33;;;;;;;8.43;1.93;;;;;;;;;;5036121;28;20028;-68
2023/11/03 10:14:58;;;;;;;8.07;1.30;;;;;;;;;;5034487;28;20079;-69
2023/11/03 10:17:24;;;;;;;6.50;1.40;;;;;;;;;;5037531;28;20021;-69
2023/11/03 10:19:49;;;;;;;9.13;1.60;;;;;;;;;;5034382;28;20493;-68
2023/11/03 10:22:14;;;;;;;7.50;2.33;;;;;;;;;;5040916;28;20082;-67
2023/11/03 10:24:40;;;;;;;6.43;1.60;;;;;;;;;;5036494;28;20035;-66
2023/11/03 10:27:05;;;;;;;6.53;1.40;;;;;;;;;;5035830;28;20112;-68
2023/11/03 10:29:31;;;;;;;6.10;1.77;;;;;;;;;;5034521;28;20021;-64
2023/11/03 10:31:57;;;;;;;6.07;1.70;;;;;;;;;;5035191;28;20029;-63
2023/11/03 10:34:23;;;;;;;8.20;1.73;;;;;;;;;;5033774;28;20023;-64
2023/11/03 10:36:49;;;;;;;7.10;1.80;;;;;;;;;;5034082;28;20037;-65
2023/11/03 10:39:14;;;;;;;4.53;1.73;;;;;;;;;;5035922;28;20039;-66
2023/11/03 10:41:40;;;;;;;7.50;1.87;;;;;;;;;;5035934;28;20029;-65
2023/11/03 10:44:06;;;;;;;9.20;1.80;;;;;;;;;;5036260;28;20108;-67
2023/11/03 10:46:36;;;;;;;8.43;2.20;;;;;;;;;;5033233;28;20021;-66
2023/11/03 10:49:25;;;;;;;7.63;2.17;;;;;;;;;;5034095;28;20024;-66
2023/11/03 10:52:16;;;;;;;7.47;2.03;;;;;;;;;;5032473;28;20500;-66
2023/11/03 10:54:59;;;;;;;9.65;2.22;;;;;;;;;;5030238;28;20049;-68
2023/11/03 10:57:24;;;;;;;8.10;1.70;;;;;;;;;;5031257;28;20482;-69
2023/11/03 10:59:53;;;;;;;9.27;2.30;;;;;;;;;;5038625;28;20053;-67
2023/11/03 11:02:24;;;;;;;11.23;2.20;;;;;;;;;;5038542;28;20021;-68
2023/11/03 11:04:56;;;;;;;7.30;2.10;;;;;;;;;;5036786;28;20057;-67
2023/11/03 11:07:25;;;;;;;8.00;1.87;;;;;;;;;;5035124;28;20086;-67
2023/11/03 11:09:52;;;;;;;8.57;2.13;;;;;;;;;;5037022;28;20031;-67
2023/11/03 11:12:17;;;;;;;8.67;2.23;;;;;;;;;;5028561;28;20467;-67
2023/11/03 11:14:43;;;;;;;12.43;2.90;;;;;;;;;;5036696;28;20096;-67
2023/11/03 11:17:09;;;;;;;6.40;2.70;;;;;;;;;;5036830;28;20362;-68
2023/11/03 11:19:38;;;;;;;7.13;2.17;;;;;;;;;;5036921;28;20052;-69
2023/11/03 11:22:07;;;;;;;10.63;2.27;;;;;;;;;;5040159;28;20056;-68
2023/11/03 11:24:33;;;;;;;6.60;1.80;;;;;;;;;;5040479;28;20032;-66
2023/11/03 11:27:16;;;;;;;9.67;2.20;;;;;;;;;;5035169;28;20072;-65
2023/11/03 11:29:42;;;;;;;10.80;2.33;;;;;;;;;;5033845;28;20750;-69
2023/11/03 11:32:10;;;;;;;5.07;2.20;;;;;;;;;;5038511;28;20482;-67
2023/11/03 11:34:38;;;;;;;8.23;1.90;;;;;;;;;;5038663;28;20020;-67
2023/11/03 11:37:31;;;;;;;9.33;1.93;;;;;;;;;;5036251;28;20483;-65
2023/11/03 11:40:00;;;;;;;9.43;2.00;;;;;;;;;;5040667;28;20040;-67
2023/11/03 11:42:28;;;;;;;11.10;2.37;;;;;;;;;;5041258;28;20501;-63
2023/11/03 11:44:54;;;;;;;11.23;2.60;;;;;;;;;;5034303;28;20539;-64
2023/11/03 11:47:23;;;;;;;12.17;2.20;;;;;;;;;;5037376;28;20497;-65
2023/11/03 11:49:48;;;;;;;8.97;1.90;;;;;;;;;;5039752;28;20257;-66
2023/11/03 11:52:13;;;;;;;6.83;2.23;;;;;;;;;;5037096;28;20158;-63
2023/11/03 11:54:39;;;;;;;8.57;1.80;;;;;;;;;;5036768;28;20025;-62
2023/11/03 11:57:05;;;;;;;8.63;1.93;;;;;;;;;;5039065;28;20018;-64
2023/11/03 11:59:32;;;;;;;10.77;2.00;;;;;;;;;;5037059;28;20092;-64
2023/11/03 12:01:57;;;;;;;7.17;2.20;;;;;;;;;;5035650;28;20029;-63
2023/11/03 12:04:23;;;;;;;11.37;1.97;;;;;;;;;;5038256;28;20065;-63
2023/11/03 12:06:48;;;;;;;10.40;1.77;;;;;;;;;;5037104;28;20025;-63
2023/11/03 12:09:15;;;;;;;8.30;1.50;;;;;;;;;;5037980;28;20071;-61
2023/11/03 12:11:41;;;;;;;6.33;1.90;;;;;;;;;;5034344;28;20426;-62
2023/11/03 12:14:07;;;;;;;12.33;1.80;;;;;;;;;;5038105;28;20053;-61
2023/11/03 12:16:34;;;;;;;14.23;2.00;;;;;;;;;;5034273;28;20060;-63
2023/11/03 12:18:59;;;;;;;12.53;2.37;;;;;;;;;;5031837;28;20021;-62
2023/11/03 12:21:24;;;;;;;10.67;1.90;;;;;;;;;;5041879;28;20021;-63
2023/11/03 12:23:50;;;;;;;9.07;1.70;;;;;;;;;;5031425;28;20021;-65
2023/11/03 12:26:16;;;;;;;9.83;2.27;;;;;;;;;;5033523;28;20027;-64
2023/11/03 12:28:41;;;;;;;16.40;2.30;;;;;;;;;;5034678;28;20025;-61
2023/11/03 12:31:06;;;;;;;10.27;1.97;;;;;;;;;;5037852;28;20455;-64
2023/11/03 12:33:32;;;;;;;9.97;1.97;;;;;;;;;;5035837;28;20071;-64
2023/11/03 12:35:57;;;;;;;8.47;2.13;;;;;;;;;;5036332;28;20020;-63
2023/11/03 12:38:23;;;;;;;11.00;1.43;;;;;;;;;;5037258;28;20493;-60
2023/11/03 12:40:50;;;;;;;7.97;2.13;;;;;;;;;;5035794;28;20024;-62
2023/11/03 12:43:16;;;;;;;10.23;1.87;;;;;;;;;;5034831;28;20388;-64
2023/11/03 12:45:44;;;;;;;9.77;2.13;;;;;;;;;;5034241;28;20021;-64
2023/11/03 12:48:16;;;;;;;10.33;1.90;;;;;;;;;;5033938;28;20021;-65
2023/11/03 12:50:49;;;;;;;7.80;1.90;;;;;;;;;;5033906;28;20404;-64
2023/11/03 12:53:15;;;;;;;10.20;2.13;;;;;;;;;;5035912;28;20167;-62
2023/11/03 12:55:40;;;;;;;8.87;1.70;;;;;;;;;;5037750;28;20108;-63
2023/11/03 12:58:10;;;;;;;11.73;2.13;;;;;;;;;;5035381;28;20357;-64
2023/11/03 13:00:36;;;;;;;8.23;2.00;;;;;;;;;;5035645;28;20005;-64
2023/11/03 13:03:02;;;;;;;6.65;1.77;;;;;;;;;;4988181;28;1267544;-66
2023/11/03 13:05:28;;;;;;;6.65;1.33;;;;;;;;;;5039645;28;20096;-63
2023/11/03 13:07:56;;;;;;;8.85;2.35;;;;;;;;;;5037922;28;20025;-66
2023/11/03 13:10:23;;;;;;;10.25;1.90;;;;;;;;;;5037055;28;20040;-65
2023/11/03 13:12:48;;;;;;;10.07;2.22;;;;;;;;;;5034560;28;20059;-65
2023/11/03 13:15:14;;;;;;;6.18;1.52;;;;;;;;;;5034728;28;20025;-61
2023/11/03 13:17:39;;;;;;;9.88;2.05;;;;;;;;;;5042672;28;20032;-66
2023/11/03 13:20:18;;;;;;;9.75;1.83;;;;;;;;;;5036206;28;20030;-66
2023/11/03 13:22:43;;;;;;;8.65;1.77;;;;;;;;;;5038773;28;20489;-66
2023/11/03 13:25:10;;;;;;;11.13;1.70;;;;;;;;;;5029590;28;20654;-66
2023/11/03 13:27:35;;;;;;;10.10;1.80;;;;;;;;;;5033555;28;20532;-66
2023/11/03 13:30:02;;;;;;;12.32;2.35;;;;;;;;;;5037158;28;20482;-64
2023/11/03 13:32:27;;;;;;;7.35;1.60;;;;;;;;;;5031714;28;20037;-66
2023/11/03 13:34:53;;;;;;;7.75;1.80;;;;;;;;;;5032419;28;20032;-67
2023/11/03 13:37:19;;;;;;;9.03;2.00;;;;;;;;;;5036118;28;20025;-67
2023/11/03 13:39:45;;;;;;;13.35;1.95;;;;;;;;;;5041788;28;20024;-67
2023/11/03 13:42:10;;;;;;;13.45;1.85;;;;;;;;;;5035410;28;20392;-67
2023/11/03 13:44:36;;;;;;;8.88;1.90;;;;;;;;;;5035525;28;20041;-67
2023/11/03 13:47:02;;;;;;;8.15;1.55;;;;;;;;;;5041574;28;20456;-65
2023/11/03 13:49:27;;;;;;;4.60;1.42;;;;;;;;;;5039073;28;20029;-66
2023/11/03 13:51:52;;;;;;;11.10;1.83;;;;;;;;;;5038926;28;20032;-65
2023/11/03 13:54:17;;;;;;;8.13;1.83;;;;;;;;;;5034618;28;20091;-67
2023/11/03 13:56:43;;;;;;;10.47;2.63;;;;;;;;;;5034554;28;20021;-65
2023/11/03 13:59:09;;;;;;;11.00;1.83;;;;;;;;;;5036054;28;20037;-68
2023/11/03 14:01:36;;;;;;;9.70;1.67;;;;;;;;;;5035698;28;20124;-69
2023/11/03 14:04:02;;;;;;;10.67;1.70;;;;;;;;;;5034351;28;20057;-67
2023/11/03 14:06:28;;;;;;;10.90;1.80;;;;;;;;;;5038071;28;20027;-67
2023/11/03 14:08:54;;;;;;;9.00;2.13;;;;;;;;;;5036877;28;20021;-68
2023/11/03 14:11:19;;;;;;;13.13;1.97;;;;;;;;;;5032228;28;20026;-69
2023/11/03 14:13:45;;;;;;;11.63;1.90;;;;;;;;;;5036717;28;20025;-68
2023/11/03 14:16:10;;;;;;;10.05;2.05;;;;;;;;;;5036065;28;20040;-70
2023/11/03 14:18:35;;;;;;;7.07;1.30;;;;;;;;;;5037413;28;20363;-71
2023/11/03 14:21:01;;;;;;;10.67;1.40;;;;;;;;;;5035622;28;20055;-68
2023/11/03 14:23:29;;;;;;;6.87;1.40;;;;;;;;;;5034538;28;20037;-69
2023/11/03 14:25:55;;;;;;;6.53;1.50;;;;;;;;;;5039111;28;20041;-65
2023/11/03 14:28:20;;;;;;;8.37;1.63;;;;;;;;;;5035897;28;20029;-67
2023/11/03 14:30:46;;;;;;;5.77;1.40;;;;;;;;;;5032263;28;20031;-65
2023/11/03 14:33:12;;;;;;;9.40;1.70;;;;;;;;;;5033402;28;20494;-64